Aksa, Russia
Current Conditions -  °F | °C
As of 2:30 PM on Saturday 25 Oct 2014 (Local Time) from UIAA Reporting Station
Broken Clouds Broken Clouds  
Wind Chill: -9°   Ceiling: 10000
Heat Index: -2°   Visibility: 6mi
Dew Point: -18°   Wind: 18mph
Humidity: 29%   Direction: 340°NNW
Pressure: 29.97"   Gusts: NA
Location:  50.27°N, 113.27°E
Report Text: UIAA 250530Z 34008MPS 9999 SCT043CB BKN100 M02/M18 Q1015 TEMPO30009G18MPS 5000 -SHSN RMK QFE702 29CLRD70
Loading
Personal Weather Stations






























Interactive Weather Map
Tropical Storm Tracking
New forecast layout! Learn more

10-Day Weather Forecast

Advertisements
Track Severe Weather on mobile